createdAt,value
2022-09-10T00:00:45.680Z,98033.06
2022-09-10T00:03:43.712Z,98032.00
2022-09-10T00:06:34.429Z,98031.47
2022-09-10T00:09:22.758Z,98032.31
2022-09-10T00:12:12.654Z,98023.47
2022-09-10T00:15:00.872Z,98031.88
2022-09-10T00:17:55.008Z,98029.59
2022-09-10T00:20:44.016Z,98030.09
2022-09-10T00:23:32.304Z,98031.59
2022-09-10T00:26:24.810Z,98028.66
2022-09-10T00:29:18.521Z,98030.81
2022-09-10T00:32:07.542Z,98024.28
2022-09-10T00:34:56.130Z,98025.88
2022-09-10T00:37:45.141Z,98025.88
2022-09-10T00:40:41.128Z,98027.41
2022-09-10T00:43:48.058Z,98017.94
2022-09-10T00:46:42.825Z,98016.22
2022-09-10T00:49:34.853Z,98010.13
2022-09-10T00:52:23.582Z,98020.88
2022-09-10T00:55:13.574Z,98015.13
2022-09-10T00:58:11.454Z,98011.16
2022-09-10T01:01:02.528Z,98017.28
2022-09-10T01:03:54.137Z,98022.97
2022-09-10T01:06:46.352Z,98016.09
2022-09-10T01:09:34.850Z,98018.78
2022-09-10T01:12:47.243Z,98012.66
2022-09-10T01:15:43.986Z,98018.69
2022-09-10T01:18:45.102Z,98005.91
2022-09-10T01:21:44.649Z,98007.19
2022-09-10T01:24:55.745Z,98011.44
2022-09-10T01:27:47.696Z,98013.34
2022-09-10T01:30:42.613Z,98026.41
2022-09-10T01:33:35.633Z,98029.34
2022-09-10T01:36:29.984Z,98031.59
2022-09-10T01:39:20.984Z,98021.06
2022-09-10T01:42:10.441Z,98014.84
2022-09-10T01:45:01.221Z,98020.41
2022-09-10T01:48:19.207Z,98027.31
2022-09-10T01:51:15.185Z,98021.47
2022-09-10T01:54:24.897Z,98009.41
2022-09-10T01:57:27.941Z,98016.00
2022-09-10T02:00:22.797Z,98010.28
2022-09-10T02:03:19.837Z,98010.00
2022-09-10T02:06:14.312Z,97997.72
2022-09-10T02:09:04.564Z,98007.59
2022-09-10T02:12:02.387Z,98008.69
2022-09-10T02:15:12.816Z,98003.38
2022-09-10T02:18:19.671Z,98001.88
2022-09-10T02:21:11.606Z,98001.44
2022-09-10T02:24:06.074Z,97994.16
2022-09-10T02:26:54.824Z,97993.06
2022-09-10T02:29:46.491Z,97986.50
2022-09-10T02:32:34.955Z,97980.28
2022-09-10T02:35:33.954Z,97977.56
2022-09-10T02:38:22.861Z,97975.44
2022-09-10T02:41:11.306Z,97978.88
2022-09-10T02:43:59.531Z,97971.66
2022-09-10T02:46:47.862Z,97970.13
2022-09-10T02:49:36.264Z,97961.75
2022-09-10T02:52:25.984Z,97949.94
2022-09-10T02:55:15.653Z,97952.34
2022-09-10T02:58:04.449Z,97958.88
2022-09-10T03:00:53.507Z,97957.13
2022-09-10T03:03:51.370Z,97953.28
2022-09-10T03:06:40.989Z,97954.63
2022-09-10T03:09:36.924Z,97964.72
2022-09-10T03:12:26.742Z,97965.34
2022-09-10T03:15:22.958Z,97962.19
2022-09-10T03:18:11.540Z,97966.75
2022-09-10T03:21:10.894Z,97970.19
2022-09-10T03:23:59.119Z,97970.63
2022-09-10T03:26:52.247Z,97971.38
2022-09-10T03:29:42.230Z,97969.00
2022-09-10T03:32:37.356Z,97972.88
2022-09-10T03:35:27.588Z,97974.81
2022-09-10T03:38:15.890Z,97967.84
2022-09-10T03:41:04.903Z,97967.94
2022-09-10T03:44:00.876Z,97961.06
2022-09-10T03:46:51.200Z,97952.63
2022-09-10T03:49:40.677Z,97957.91
2022-09-10T03:52:30.153Z,97962.22
2022-09-10T03:55:19.055Z,97969.41
2022-09-10T03:58:07.709Z,97974.97
2022-09-10T04:01:03.610Z,97975.22
2022-09-10T04:03:56.597Z,97964.06
2022-09-10T04:06:46.869Z,97958.81
2022-09-10T04:09:45.481Z,97962.88
2022-09-10T04:12:33.840Z,97954.31
2022-09-10T04:15:31.122Z,97944.34
2022-09-10T04:18:20.899Z,97947.75
2022-09-10T04:21:09.283Z,97953.88
2022-09-10T04:24:05.516Z,97952.22
2022-09-10T04:26:53.781Z,97950.84
2022-09-10T04:29:49.953Z,97961.34
2022-09-10T04:32:39.538Z,97956.53
2022-09-10T04:35:35.467Z,97949.53
2022-09-10T04:38:27.021Z,97952.53
2022-09-10T04:41:21.545Z,97943.31
2022-09-10T04:44:10.084Z,97940.97
2022-09-10T04:47:04.703Z,97938.91
2022-09-10T04:49:54.868Z,97943.31
2022-09-10T04:52:44.843Z,97934.09
2022-09-10T04:55:33.548Z,97929.34
2022-09-10T04:58:22.432Z,97930.66
2022-09-10T05:01:11.870Z,97931.84
2022-09-10T05:04:00.582Z,97930.44
2022-09-10T05:06:50.338Z,97929.81
2022-09-10T05:09:40.155Z,97925.59
2022-09-10T05:12:38.538Z,97927.84
2022-09-10T05:15:26.870Z,97930.88
2022-09-10T05:18:24.219Z,97930.63
2022-09-10T05:21:12.578Z,97925.09
2022-09-10T05:24:12.422Z,97934.41
2022-09-10T05:27:02.261Z,97931.94
2022-09-10T05:29:59.375Z,97933.97
2022-09-10T05:32:47.815Z,97927.63
2022-09-10T05:35:47.815Z,97935.97
2022-09-10T05:38:39.844Z,97933.25
2022-09-10T05:41:29.239Z,97939.84
2022-09-10T05:44:25.797Z,97935.47
2022-09-10T05:47:14.118Z,97925.34
2022-09-10T05:50:08.883Z,97925.66
2022-09-10T05:53:00.899Z,97922.19
2022-09-10T05:55:50.988Z,97922.00
2022-09-10T05:58:39.967Z,97920.59
2022-09-10T06:01:32.136Z,97921.47
2022-09-10T06:04:22.044Z,97918.00
2022-09-10T06:07:10.842Z,97919.50
2022-09-10T06:10:00.297Z,97920.88
2022-09-10T06:12:58.593Z,97916.66
2022-09-10T06:15:56.169Z,97922.28
2022-09-10T06:18:46.444Z,97919.75
2022-09-10T06:21:37.724Z,97922.69
2022-09-10T06:24:26.057Z,97918.13
2022-09-10T06:27:17.424Z,97919.28
2022-09-10T06:30:12.519Z,97918.75
2022-09-10T06:33:04.202Z,97917.47
2022-09-10T06:36:01.458Z,97919.47
2022-09-10T06:38:50.216Z,97925.69
2022-09-10T06:41:38.698Z,97929.97
2022-09-10T06:44:31.847Z,97937.28
2022-09-10T06:50:51.608Z,97940.03
2022-09-10T06:53:42.788Z,97938.53
2022-09-10T06:56:33.808Z,97935.66
2022-09-10T06:59:24.369Z,97930.41
2022-09-10T07:02:12.942Z,97934.50
2022-09-10T07:05:01.909Z,97935.66
2022-09-10T07:07:51.519Z,97938.72
2022-09-10T07:10:42.060Z,97932.38
2022-09-10T07:13:30.882Z,97938.09
2022-09-10T07:16:30.286Z,97938.06
2022-09-10T07:19:18.963Z,97942.41
2022-09-10T07:22:08.918Z,97930.06
2022-09-10T07:25:07.239Z,97925.72
2022-09-10T07:28:15.476Z,97926.16
2022-09-10T07:31:15.970Z,97931.00
2022-09-10T07:34:06.386Z,97939.06
2022-09-10T07:37:01.980Z,97941.66
2022-09-10T07:39:51.124Z,97945.00
2022-09-10T07:42:45.771Z,97932.91
2022-09-10T07:45:35.456Z,97940.97
2022-09-10T07:48:27.288Z,97933.38
2022-09-10T07:51:18.332Z,97940.28
2022-09-10T07:54:07.909Z,97933.22
2022-09-10T07:57:00.184Z,97938.06
2022-09-10T07:59:49.245Z,97935.16
2022-09-10T08:02:42.889Z,97941.59
2022-09-10T08:05:34.196Z,97939.94
2022-09-10T08:08:34.124Z,97938.59
2022-09-10T08:11:23.203Z,97939.13
2022-09-10T08:14:14.477Z,97943.81
2022-09-10T08:17:06.023Z,97938.50
2022-09-10T08:20:01.405Z,97940.03
2022-09-10T08:22:50.198Z,97948.44
2022-09-10T08:25:38.675Z,97938.78
2022-09-10T08:28:29.759Z,97938.22
2022-09-10T08:31:18.282Z,97937.09
2022-09-10T08:34:14.278Z,97936.00
2022-09-10T08:37:08.024Z,97941.09
2022-09-10T08:39:58.319Z,97948.34
2022-09-10T08:42:51.363Z,97944.03
2022-09-10T08:45:43.571Z,97946.97
2022-09-10T08:48:35.859Z,97942.72
2022-09-10T08:51:30.334Z,97941.19
2022-09-10T08:54:25.443Z,97933.69
2022-09-10T08:57:24.673Z,97941.59
2022-09-10T09:00:16.565Z,97940.16
2022-09-10T09:03:13.939Z,97937.59
2022-09-10T09:06:06.345Z,97947.41
2022-09-10T09:09:03.060Z,97938.41
2022-09-10T09:12:07.365Z,97945.88
2022-09-10T09:15:09.344Z,97944.38
2022-09-10T09:18:14.678Z,97944.19
2022-09-10T09:21:09.753Z,97942.59
2022-09-10T09:24:14.261Z,97940.97
2022-09-10T09:27:16.896Z,97943.97
2022-09-10T09:30:09.165Z,97936.94
2022-09-10T09:33:17.543Z,97948.56
2022-09-10T09:36:08.699Z,97946.19
2022-09-10T09:38:57.498Z,97946.75
2022-09-10T09:41:56.253Z,97942.66
2022-09-10T09:44:56.857Z,97939.81
2022-09-10T09:47:46.983Z,97937.44
2022-09-10T09:50:39.359Z,97936.38
2022-09-10T09:53:31.081Z,97930.75
2022-09-10T09:56:25.029Z,97933.22
2022-09-10T09:59:26.885Z,97934.22
2022-09-10T10:02:19.636Z,97925.81
2022-09-10T10:05:24.770Z,97925.41
2022-09-10T10:08:31.167Z,97914.72
2022-09-10T10:11:22.436Z,97922.16
2022-09-10T10:14:41.744Z,97918.22
2022-09-10T10:17:35.927Z,97918.66
2022-09-10T10:20:37.175Z,97915.50
2022-09-10T10:23:33.845Z,97912.66
2022-09-10T10:26:33.761Z,97914.56
2022-09-10T10:29:22.458Z,97913.31
2022-09-10T10:32:19.847Z,97911.31
2022-09-10T10:35:32.199Z,97915.53
2022-09-10T10:38:35.365Z,97915.72
2022-09-10T10:42:04.514Z,97920.59
2022-09-10T10:45:31.231Z,97918.94
2022-09-10T10:48:30.366Z,97920.78
2022-09-10T10:51:32.033Z,97919.22
2022-09-10T10:54:37.625Z,97916.19
2022-09-10T10:57:34.648Z,97915.50
2022-09-10T11:00:22.969Z,97919.72
2022-09-10T11:03:16.117Z,97919.56
2022-09-10T11:06:09.418Z,97916.84
2022-09-10T11:09:04.235Z,97912.94
2022-09-10T11:11:57.482Z,97919.56
2022-09-10T11:14:51.354Z,97915.28
2022-09-10T11:17:43.720Z,97908.75
2022-09-10T11:20:38.070Z,97903.03
2022-09-10T11:23:33.027Z,97912.88
2022-09-10T11:26:27.694Z,97906.66
2022-09-10T11:29:35.338Z,97900.66
2022-09-10T11:32:30.336Z,97903.03
2022-09-10T11:35:23.960Z,97913.72
2022-09-10T11:38:20.730Z,97894.03
2022-09-10T11:41:17.234Z,97893.47
2022-09-10T11:44:19.207Z,97895.78
2022-09-10T11:47:15.512Z,97885.84
2022-09-10T11:50:11.088Z,97885.47
2022-09-10T11:53:00.319Z,97881.00
2022-09-10T11:56:21.470Z,97875.19
2022-09-10T11:59:31.475Z,97877.31
2022-09-10T12:02:58.609Z,97875.41
2022-09-10T12:05:56.609Z,97869.94
2022-09-10T12:09:01.153Z,97877.06
2022-09-10T12:12:01.101Z,97859.25
2022-09-10T12:14:51.084Z,97857.78
2022-09-10T12:17:44.551Z,97862.97
2022-09-10T12:20:36.894Z,97868.28
2022-09-10T12:23:28.801Z,97861.53
2022-09-10T12:26:20.675Z,97856.47
2022-09-10T12:29:27.844Z,97854.44
2022-09-10T12:32:32.409Z,97846.94
2022-09-10T12:35:44.755Z,97838.19
2022-09-10T12:38:51.209Z,97843.22
2022-09-10T12:42:00.039Z,97840.09
2022-09-10T12:44:48.737Z,97830.59
2022-09-10T12:47:46.854Z,97828.19
2022-09-10T12:50:46.229Z,97825.50
2022-09-10T12:53:52.047Z,97828.19
2022-09-10T12:56:50.917Z,97829.16
2022-09-10T13:00:03.013Z,97816.34
2022-09-10T13:02:58.398Z,97817.56
2022-09-10T13:05:51.980Z,97817.47
2022-09-10T13:08:43.717Z,97817.34
2022-09-10T13:11:36.968Z,97823.34
2022-09-10T13:14:30.583Z,97823.56
2022-09-10T13:17:38.259Z,97822.06
2022-09-10T13:20:34.693Z,97824.03
2022-09-10T13:23:25.094Z,97814.81
2022-09-10T13:26:52.361Z,97813.84
2022-09-10T13:29:44.663Z,97810.13
2022-09-10T13:32:42.759Z,97806.72
2022-09-10T13:36:06.335Z,97803.66
2022-09-10T13:39:25.179Z,97799.19
2022-09-10T13:42:47.357Z,97801.28
2022-09-10T13:45:39.725Z,97813.66
2022-09-10T13:48:31.032Z,97805.75
2022-09-10T13:51:36.777Z,97811.63
2022-09-10T13:54:34.511Z,97805.97
2022-09-10T13:57:27.662Z,97807.06
2022-09-10T14:00:23.785Z,97804.00
2022-09-10T14:03:17.472Z,97804.25
2022-09-10T14:06:09.077Z,97810.09
2022-09-10T14:09:03.873Z,97809.41
2022-09-10T14:11:52.406Z,97810.63
2022-09-10T14:14:54.708Z,97804.56
2022-09-10T14:17:51.021Z,97797.56
2022-09-10T14:20:42.772Z,97799.16
2022-09-10T14:23:31.498Z,97795.59
2022-09-10T14:26:33.884Z,97795.13
2022-09-10T14:29:25.661Z,97790.69
2022-09-10T14:32:28.672Z,97784.25
2022-09-10T14:35:36.327Z,97787.31
2022-09-10T14:38:26.925Z,97783.00
2022-09-10T14:41:20.491Z,97788.00
2022-09-10T14:44:29.806Z,97791.66
2022-09-10T14:47:29.974Z,97787.50
2022-09-10T14:50:31.892Z,97789.63
2022-09-10T14:53:20.302Z,97791.06
2022-09-10T14:56:19.652Z,97789.69
2022-09-10T14:59:15.702Z,97778.69
2022-09-10T15:02:15.839Z,97783.97
2022-09-10T15:05:04.183Z,97777.59
2022-09-10T15:08:01.638Z,97775.78
2022-09-10T15:10:50.833Z,97780.13
2022-09-10T15:13:49.321Z,97783.31
2022-09-10T15:16:37.642Z,97781.66
2022-09-10T15:19:28.036Z,97793.34
2022-09-10T15:22:24.820Z,97782.81
2022-09-10T15:25:29.402Z,97773.50
2022-09-10T15:28:17.764Z,97774.59
2022-09-10T15:31:06.752Z,97771.34
2022-09-10T15:34:01.104Z,97783.91
2022-09-10T15:36:51.261Z,97777.31
2022-09-10T15:39:39.595Z,97775.53
2022-09-10T15:42:27.976Z,97762.41
2022-09-10T15:45:16.283Z,97773.91
2022-09-10T15:48:05.045Z,97768.41
2022-09-10T15:50:53.446Z,97765.34
2022-09-10T15:53:44.238Z,97775.34
2022-09-10T15:56:32.721Z,97773.53
2022-09-10T15:59:22.301Z,97782.44
2022-09-10T16:02:13.308Z,97780.91
2022-09-10T16:05:02.248Z,97795.22
2022-09-10T16:07:50.625Z,97786.56
2022-09-10T16:10:41.606Z,97795.25
2022-09-10T16:13:29.958Z,97782.34
2022-09-10T16:16:20.422Z,97787.94
2022-09-10T16:19:09.914Z,97787.91
2022-09-10T16:21:58.237Z,97788.59
2022-09-10T16:24:46.572Z,97788.34
2022-09-10T16:27:37.933Z,97794.81
2022-09-10T16:30:29.468Z,97793.56
2022-09-10T16:33:17.757Z,97785.31
2022-09-10T16:36:06.731Z,97802.25
2022-09-10T16:38:57.100Z,97793.44
2022-09-10T16:41:46.710Z,97797.56
2022-09-10T16:44:36.594Z,97779.63
2022-09-10T16:47:25.624Z,97782.44
2022-09-10T16:50:14.442Z,97782.84
2022-09-10T16:53:02.757Z,97778.91
2022-09-10T16:55:51.504Z,97774.78
2022-09-10T16:58:40.076Z,97776.50
2022-09-10T17:01:31.230Z,97773.88
2022-09-10T17:04:24.880Z,97774.63
2022-09-10T17:07:14.653Z,97769.59
2022-09-10T17:10:03.028Z,97775.94
2022-09-10T17:12:57.855Z,97773.13
2022-09-10T17:15:46.513Z,97768.78
2022-09-10T17:22:06.301Z,97763.09
2022-09-10T17:24:54.662Z,97752.47
2022-09-10T17:27:43.041Z,97767.56
2022-09-10T17:30:31.866Z,97764.22
2022-09-10T17:33:21.941Z,97761.00
2022-09-10T17:36:12.700Z,97765.31
2022-09-10T17:39:02.527Z,97778.59
2022-09-10T17:41:55.285Z,97781.28
2022-09-10T17:44:44.413Z,97935.59
2022-09-10T17:47:33.211Z,97684.53
2022-09-10T17:50:21.579Z,97811.19
2022-09-10T17:53:09.875Z,97831.28
2022-09-10T17:56:05.233Z,97827.44
2022-09-10T17:58:57.251Z,97824.41
2022-09-10T18:01:45.677Z,97825.09
2022-09-10T18:04:34.241Z,97813.69
2022-09-10T18:07:22.706Z,97824.13
2022-09-10T18:10:11.949Z,97826.03
2022-09-10T18:13:02.242Z,97823.19
2022-09-10T18:15:50.640Z,97810.22
2022-09-10T18:18:39.914Z,97816.44
2022-09-10T18:21:31.223Z,97816.28
2022-09-10T18:24:22.621Z,97814.53
2022-09-10T18:27:11.014Z,97804.06
2022-09-10T18:30:01.408Z,97806.72
2022-09-10T18:32:52.122Z,97815.91
2022-09-10T18:35:40.692Z,97806.84
2022-09-10T18:38:29.623Z,97802.03
2022-09-10T18:41:23.279Z,97802.97
2022-09-10T18:44:16.254Z,97797.78
2022-09-10T18:47:17.665Z,97796.44
2022-09-10T18:50:12.559Z,97800.81
2022-09-10T18:53:01.398Z,97787.94
2022-09-10T18:55:49.977Z,97795.63
2022-09-10T18:58:38.939Z,97793.84
2022-09-10T19:01:31.125Z,97790.78
2022-09-10T19:04:23.813Z,97791.69
2022-09-10T19:07:12.445Z,97788.81
2022-09-10T19:10:04.159Z,97792.25
2022-09-10T19:12:52.749Z,97785.47
2022-09-10T19:15:41.303Z,97797.84
2022-09-10T19:18:30.672Z,97796.88
2022-09-10T19:21:21.267Z,97798.91
2022-09-10T19:24:10.019Z,97794.06
2022-09-10T19:26:58.819Z,97792.66
2022-09-10T19:29:49.864Z,97800.22
2022-09-10T19:32:38.516Z,97795.00
2022-09-10T19:35:27.197Z,97799.31
2022-09-10T19:38:36.608Z,97798.34
2022-09-10T19:41:25.632Z,97797.81
2022-09-10T19:44:16.008Z,97793.53
2022-09-10T19:47:04.488Z,97794.56
2022-09-10T19:49:53.100Z,97791.28
2022-09-10T19:52:41.915Z,97799.38
2022-09-10T19:55:31.663Z,97798.81
2022-09-10T19:58:21.289Z,97793.50
2022-09-10T20:01:17.257Z,97796.75
2022-09-10T20:04:08.995Z,97802.00
2022-09-10T20:06:58.697Z,97795.84
2022-09-10T20:09:47.382Z,97794.19
2022-09-10T20:12:37.232Z,97800.16
2022-09-10T20:15:25.557Z,97805.19
2022-09-10T20:18:13.904Z,97817.78
2022-09-10T20:21:12.196Z,97818.75
2022-09-10T20:24:00.548Z,97810.84
2022-09-10T20:26:49.135Z,97807.59
2022-09-10T20:29:38.891Z,97810.88
2022-09-10T20:32:27.235Z,97804.53
2022-09-10T20:35:15.834Z,97806.78
2022-09-10T20:38:04.158Z,97806.22
2022-09-10T20:40:52.844Z,97809.50
2022-09-10T20:43:41.346Z,97801.72
2022-09-10T20:46:32.255Z,97794.31
2022-09-10T20:49:21.486Z,97796.13
2022-09-10T20:52:09.847Z,97793.09
2022-09-10T20:54:58.495Z,97796.13
2022-09-10T20:57:47.109Z,97800.06
2022-09-10T21:00:35.936Z,97793.22
2022-09-10T21:03:26.150Z,97798.44
2022-09-10T21:06:16.458Z,97794.44
2022-09-10T21:09:05.380Z,97802.97
2022-09-10T21:11:54.112Z,97804.44
2022-09-10T21:14:42.549Z,97800.97
2022-09-10T21:17:31.104Z,97804.59
2022-09-10T21:20:22.143Z,97801.34
2022-09-10T21:23:10.714Z,97804.66
2022-09-10T21:25:59.406Z,97803.41
2022-09-10T21:28:48.604Z,97818.69
2022-09-10T21:31:37.058Z,97821.25
2022-09-10T21:34:25.521Z,97812.00
2022-09-10T21:37:15.303Z,97817.88
2022-09-10T21:40:05.028Z,97812.19
2022-09-10T21:42:53.388Z,97822.09
2022-09-10T21:45:41.913Z,97818.13
2022-09-10T21:48:31.254Z,97816.63
2022-09-10T21:51:21.645Z,97817.66
2022-09-10T21:54:15.174Z,97820.44
2022-09-10T21:57:04.253Z,97832.69
2022-09-10T21:59:53.405Z,97824.19
2022-09-10T22:02:42.261Z,97821.91
2022-09-10T22:05:30.637Z,97818.38
2022-09-10T22:08:19.401Z,97821.59
2022-09-10T22:11:14.327Z,97819.97
2022-09-10T22:14:05.420Z,97824.97
2022-09-10T22:16:54.277Z,97819.56
2022-09-10T22:19:44.167Z,97821.66
2022-09-10T22:22:32.551Z,97818.63
2022-09-10T22:25:20.962Z,97818.84
2022-09-10T22:28:11.020Z,97804.84
2022-09-10T22:30:59.386Z,97823.59
2022-09-10T22:33:54.304Z,97813.59
2022-09-10T22:36:44.787Z,97807.34
2022-09-10T22:39:36.901Z,97806.50
2022-09-10T22:42:26.353Z,97799.56
2022-09-10T22:45:17.485Z,97797.09
2022-09-10T22:48:06.077Z,97801.47
2022-09-10T22:50:54.589Z,97808.69
2022-09-10T22:53:44.497Z,97805.22
2022-09-10T22:56:33.231Z,97810.81
2022-09-10T22:59:21.553Z,97806.03
2022-09-10T23:02:11.527Z,97811.72
2022-09-10T23:05:00.108Z,97807.00
2022-09-10T23:07:50.489Z,97807.00
2022-09-10T23:10:38.935Z,97799.06
2022-09-10T23:13:27.607Z,97799.06
2022-09-10T23:16:17.849Z,97792.63
2022-09-10T23:19:10.752Z,97802.28
2022-09-10T23:21:59.190Z,97809.88
2022-09-10T23:24:47.744Z,97801.00
2022-09-10T23:27:36.197Z,97805.75
2022-09-10T23:30:24.556Z,97813.44
2022-09-10T23:33:13.423Z,97821.53
2022-09-10T23:36:04.418Z,97824.03
2022-09-10T23:38:53.018Z,97827.13
2022-09-10T23:41:41.797Z,97820.78
2022-09-10T23:44:30.336Z,97822.75
2022-09-10T23:47:18.764Z,97827.16
2022-09-10T23:50:08.054Z,97816.84
2022-09-10T23:52:58.007Z,97821.16
2022-09-10T23:55:47.072Z,97817.19
2022-09-10T23:58:35.588Z,97804.84
